Time;durP1;ratioP1;P1;durP2;ratioP2;P2;SDS_P1;SDS_P2;PMS_P1;PMS_P2;Temp;Humidity;BMP_temperature;BMP_pressure;BME280_temperature;BME280_humidity;BME280_pressure;Samples;Min_cycle;Max_cycle;Signal;HPM_P1;HPM_P2
2022/10/05 00:02:30;;;;;;;7.88;5.28;;;12.90;99.90;;;;;;5031139;28;20038;-53
2022/10/05 00:05:31;;;;;;;6.85;4.90;;;12.90;99.90;;;;;;5027190;28;20179;-52
2022/10/05 00:08:22;;;;;;;6.68;4.43;;;12.90;99.90;;;;;;5028552;28;20405;-52
2022/10/05 00:11:11;;;;;;;9.23;4.60;;;13.00;99.90;;;;;;4994412;28;20058;-54
2022/10/05 00:13:58;;;;;;;7.93;5.03;;;13.00;99.90;;;;;;4998209;28;20018;-54
2022/10/05 00:16:44;;;;;;;10.32;4.90;;;12.90;99.90;;;;;;5029100;28;20089;-52
2022/10/05 00:19:37;;;;;;;7.35;4.80;;;12.90;99.90;;;;;;5014307;28;20044;-51
2022/10/05 00:22:29;;;;;;;6.30;4.30;;;12.90;99.90;;;;;;5013671;28;20569;-53
2022/10/05 00:25:19;;;;;;;8.10;4.55;;;12.80;99.90;;;;;;5013951;28;20026;-53
2022/10/05 00:28:25;;;;;;;8.13;5.32;;;12.90;99.90;;;;;;4997556;28;20393;-50
2022/10/05 00:31:18;;;;;;;8.55;4.93;;;12.90;99.90;;;;;;5011751;28;20024;-50
2022/10/05 00:34:04;;;;;;;7.00;4.70;;;12.90;99.90;;;;;;5013162;28;20034;-51
2022/10/05 00:36:50;;;;;;;6.47;4.60;;;12.90;99.90;;;;;;5017454;28;20041;-53
2022/10/05 00:39:39;;;;;;;6.95;4.53;;;13.00;99.90;;;;;;5033089;28;20026;-54
2022/10/05 00:42:28;;;;;;;7.20;4.38;;;13.00;99.90;;;;;;5018999;28;20436;-51
2022/10/05 00:45:22;;;;;;;6.05;4.55;;;13.00;99.90;;;;;;5013401;28;20580;-50
2022/10/05 00:48:47;;;;;;;9.00;5.22;;;13.00;99.90;;;;;;5013742;28;20413;-53
2022/10/05 00:51:36;;;;;;;9.13;4.68;;;13.00;99.90;;;;;;5013905;28;20073;-51
2022/10/05 00:54:45;;;;;;;6.00;4.82;;;13.00;99.90;;;;;;5024810;28;20529;-54
2022/10/05 00:57:49;;;;;;;9.63;4.53;;;13.00;99.90;;;;;;5033106;28;20033;-52
2022/10/05 01:00:45;;;;;;;6.30;4.20;;;13.00;99.90;;;;;;5025052;28;20029;-54
2022/10/05 01:04:00;;;;;;;9.30;5.60;;;13.00;99.90;;;;;;5012584;28;20523;-51
2022/10/05 01:06:49;;;;;;;7.78;4.60;;;12.90;99.90;;;;;;4991314;28;20122;-53
2022/10/05 01:09:41;;;;;;;5.97;4.90;;;12.90;99.90;;;;;;5013575;28;20022;-55
2022/10/05 01:12:32;;;;;;;5.53;4.13;;;12.90;99.90;;;;;;5014389;28;20036;-53
2022/10/05 01:15:35;;;;;;;9.10;4.72;;;13.00;99.90;;;;;;5016326;28;20030;-52
2022/10/05 01:18:46;;;;;;;6.78;4.13;;;13.00;99.90;;;;;;5012716;28;20068;-51
2022/10/05 01:21:50;;;;;;;7.40;4.75;;;13.00;99.90;;;;;;5029979;28;20028;-50
2022/10/05 01:25:09;;;;;;;6.65;4.40;;;13.00;99.90;;;;;;5012643;28;20028;-53
2022/10/05 01:28:02;;;;;;;8.88;4.65;;;13.00;99.90;;;;;;4996401;28;20510;-51
2022/10/05 01:31:03;;;;;;;6.68;4.43;;;13.00;99.90;;;;;;5013765;28;20038;-49
2022/10/05 01:34:12;;;;;;;6.90;4.10;;;13.10;99.90;;;;;;5021173;28;20025;-53
2022/10/05 01:37:28;;;;;;;8.00;4.68;;;13.00;99.90;;;;;;5030095;28;20025;-54
2022/10/05 01:41:00;;;;;;;6.03;4.78;;;13.00;99.90;;;;;;5013201;28;20026;-55
2022/10/05 01:44:17;;;;;;;8.15;5.30;;;13.00;99.90;;;;;;5015800;28;20026;-53
2022/10/05 01:47:13;;;;;;;8.82;4.90;;;13.00;99.90;;;;;;5024655;28;20409;-54
2022/10/05 01:50:03;;;;;;;10.05;4.97;;;12.90;99.90;;;;;;4992896;28;20022;-54
2022/10/05 01:53:11;;;;;;;6.43;4.68;;;13.00;99.90;;;;;;5004062;28;20030;-50
2022/10/05 01:56:23;;;;;;;5.95;4.13;;;13.00;99.90;;;;;;5012016;28;20401;-51
2022/10/05 01:59:17;;;;;;;11.50;5.53;;;12.90;99.90;;;;;;4997509;28;20026;-53
2022/10/05 02:02:08;;;;;;;6.78;4.50;;;12.90;99.90;;;;;;5012255;28;20033;-53
2022/10/05 02:05:09;;;;;;;7.28;4.70;;;12.90;99.90;;;;;;5011490;28;20517;-49
2022/10/05 02:08:02;;;;;;;8.32;4.55;;;12.90;99.90;;;;;;4997627;28;20080;-55
2022/10/05 02:10:59;;;;;;;11.02;5.50;;;12.80;99.90;;;;;;5010213;28;20026;-54
2022/10/05 02:13:57;;;;;;;5.80;4.50;;;12.80;99.90;;;;;;5012367;28;20110;-52
2022/10/05 02:16:49;;;;;;;8.85;4.90;;;12.80;99.90;;;;;;5028456;28;20025;-53
2022/10/05 02:19:40;;;;;;;11.32;5.53;;;12.70;99.90;;;;;;5031857;28;20029;-50
2022/10/05 02:22:44;;;;;;;15.10;5.80;;;12.60;99.90;;;;;;5013215;28;20021;-49
2022/10/05 02:25:35;;;;;;;6.65;5.28;;;12.50;99.90;;;;;;5016511;28;20065;-53
2022/10/05 02:28:25;;;;;;;7.57;5.30;;;12.40;99.90;;;;;;5011014;28;20018;-51
2022/10/05 02:31:15;;;;;;;6.65;5.30;;;12.30;99.90;;;;;;5011942;28;20030;-51
2022/10/05 02:34:23;;;;;;;8.70;5.88;;;12.20;99.90;;;;;;5011269;28;20022;-51
2022/10/05 02:37:31;;;;;;;7.90;5.57;;;12.20;99.90;;;;;;5011522;28;20533;-53
2022/10/05 02:40:31;;;;;;;8.35;5.40;;;12.10;99.90;;;;;;5006802;28;20025;-55
2022/10/05 02:43:24;;;;;;;7.72;5.40;;;12.10;99.90;;;;;;4990454;28;20027;-50
2022/10/05 02:46:20;;;;;;;8.13;5.28;;;12.20;99.90;;;;;;5019192;28;20033;-53
2022/10/05 02:49:13;;;;;;;7.57;5.40;;;12.20;99.90;;;;;;5012245;28;20799;-55
2022/10/05 02:52:26;;;;;;;8.20;5.28;;;12.10;99.90;;;;;;5020593;28;20640;-51
2022/10/05 02:55:58;;;;;;;6.75;4.82;;;12.10;99.90;;;;;;5025429;28;20025;-52
2022/10/05 02:58:49;;;;;;;7.45;5.20;;;12.10;99.90;;;;;;4954669;28;20055;-52
2022/10/05 03:01:48;;;;;;;7.20;5.03;;;12.10;99.90;;;;;;5030126;28;20088;-53
2022/10/05 03:04:51;;;;;;;6.60;5.45;;;12.10;99.90;;;;;;5023021;28;20096;-53
2022/10/05 03:07:46;;;;;;;9.50;5.03;;;12.10;99.90;;;;;;5011305;28;20446;-49
2022/10/05 03:11:14;;;;;;;8.20;5.60;;;12.10;99.90;;;;;;5011730;28;20040;-54
2022/10/05 03:14:30;;;;;;;6.85;4.95;;;12.10;99.90;;;;;;5010842;28;20026;-54
2022/10/05 03:17:29;;;;;;;10.35;5.40;;;12.10;99.90;;;;;;5025443;28;20396;-53
2022/10/05 03:20:43;;;;;;;8.00;5.22;;;12.00;99.90;;;;;;5010423;28;20037;-55
2022/10/05 03:23:50;;;;;;;7.30;5.65;;;11.90;99.90;;;;;;5009323;28;20026;-55
2022/10/05 03:26:51;;;;;;;7.57;5.20;;;11.90;99.90;;;;;;5027473;28;20025;-54
2022/10/05 03:29:54;;;;;;;8.02;5.35;;;11.80;99.90;;;;;;5024494;28;20497;-55
2022/10/05 03:33:09;;;;;;;12.70;6.55;;;11.80;99.90;;;;;;5024923;28;20116;-54
2022/10/05 03:36:00;;;;;;;7.30;5.32;;;11.60;99.90;;;;;;5004996;28;20034;-50
2022/10/05 03:38:48;;;;;;;13.38;6.40;;;11.50;99.90;;;;;;5015292;28;20022;-54
2022/10/05 03:41:49;;;;;;;8.38;6.25;;;11.40;99.90;;;;;;5029968;28;20029;-51
2022/10/05 03:44:43;;;;;;;9.75;6.20;;;11.40;99.90;;;;;;5017151;28;20026;-51
2022/10/05 03:47:54;;;;;;;11.48;6.53;;;11.50;99.90;;;;;;5024897;28;20252;-51
2022/10/05 03:51:17;;;;;;;8.55;5.60;;;11.50;99.90;;;;;;5011188;28;20018;-52
2022/10/05 03:54:23;;;;;;;8.85;5.93;;;11.60;99.90;;;;;;5018065;28;20034;-55
2022/10/05 03:57:22;;;;;;;7.13;6.03;;;11.60;99.90;;;;;;5011032;28;20037;-56
2022/10/05 04:00:22;;;;;;;8.68;6.07;;;11.70;99.90;;;;;;5015487;28;20030;-52
2022/10/05 04:03:26;;;;;;;17.20;6.93;;;11.70;99.90;;;;;;4996699;28;20036;-54
2022/10/05 04:06:18;;;;;;;9.60;6.10;;;11.70;99.90;;;;;;5010051;28;20026;-52
2022/10/05 04:09:23;;;;;;;14.65;6.18;;;11.70;99.90;;;;;;4993987;28;20409;-53
2022/10/05 04:12:24;;;;;;;7.72;6.07;;;11.70;99.90;;;;;;5013673;28;20084;-54
2022/10/05 04:15:21;;;;;;;50.47;32.30;;;11.70;99.90;;;;;;5025514;28;20036;-55
2022/10/05 04:18:33;;;;;;;33.90;20.05;;;11.80;99.90;;;;;;5019963;28;20378;-54
2022/10/05 04:21:40;;;;;;;15.18;10.27;;;11.90;99.90;;;;;;5010462;28;20030;-51
2022/10/05 04:24:26;;;;;;;12.10;7.75;;;11.90;99.90;;;;;;5033030;28;20033;-52
2022/10/05 04:27:18;;;;;;;10.27;6.43;;;11.90;99.90;;;;;;5016811;28;20029;-50
2022/10/05 04:30:11;;;;;;;8.13;5.80;;;11.90;99.90;;;;;;5016192;28;20041;-51
2022/10/05 04:32:59;;;;;;;9.82;6.30;;;11.80;99.90;;;;;;5032661;28;20029;-54
2022/10/05 04:36:09;;;;;;;8.88;6.72;;;11.80;99.90;;;;;;5017578;28;20041;-51
2022/10/05 04:39:42;;;;;;;9.30;6.95;;;11.80;99.90;;;;;;4995455;28;20502;-55
2022/10/05 04:42:31;;;;;;;7.93;6.25;;;11.70;99.90;;;;;;5015609;28;20032;-54
2022/10/05 04:45:23;;;;;;;11.43;6.15;;;11.60;99.90;;;;;;5014824;28;20497;-53
2022/10/05 04:48:28;;;;;;;11.13;6.00;;;11.60;99.90;;;;;;5014753;28;20029;-55
2022/10/05 04:51:19;;;;;;;121.33;18.67;;;11.60;99.90;;;;;;5029159;28;20025;-48
2022/10/05 04:54:20;;;;;;;35.35;8.52;;;11.50;99.90;;;;;;5033135;28;20029;-51
2022/10/05 04:57:13;;;;;;;12.98;7.65;;;11.40;99.90;;;;;;4994758;28;20066;-53
2022/10/05 05:00:24;;;;;;;24.40;9.20;;;11.30;99.90;;;;;;5015489;28;20056;-53
2022/10/05 05:03:32;;;;;;;13.65;7.90;;;11.10;99.90;;;;;;5016537;28;20069;-52
2022/10/05 05:06:33;;;;;;;12.85;7.18;;;11.10;99.90;;;;;;5012644;28;20112;-52
2022/10/05 05:09:48;;;;;;;24.92;11.30;;;11.10;99.90;;;;;;5013806;28;20049;-55
2022/10/05 05:12:59;;;;;;;15.52;9.52;;;11.10;99.90;;;;;;5031911;28;20120;-57
2022/10/05 05:16:08;;;;;;;32.35;10.00;;;11.20;99.90;;;;;;5025653;28;20064;-52
2022/10/05 05:19:00;;;;;;;11.02;6.97;;;11.30;99.90;;;;;;5012865;28;20050;-54
2022/10/05 05:21:50;;;;;;;11.32;6.75;;;11.30;99.90;;;;;;4994650;28;20023;-56
2022/10/05 05:25:04;;;;;;;8.00;6.10;;;11.20;99.90;;;;;;4994276;28;20027;-50
2022/10/05 05:27:56;;;;;;;8.90;5.72;;;11.10;99.90;;;;;;5002044;28;20034;-50
2022/10/05 05:30:59;;;;;;;7.78;5.95;;;11.10;99.90;;;;;;5013076;28;20053;-56
2022/10/05 05:33:57;;;;;;;9.70;6.30;;;11.10;99.90;;;;;;5007021;28;20040;-53
2022/10/05 05:36:48;;;;;;;10.10;6.40;;;11.20;99.90;;;;;;5009985;28;20026;-53
2022/10/05 05:39:56;;;;;;;12.38;7.65;;;11.20;99.90;;;;;;5012732;28;20072;-52
2022/10/05 05:42:59;;;;;;;33.25;15.43;;;11.20;99.90;;;;;;5015217;28;20072;-50
2022/10/05 05:45:53;;;;;;;20.27;13.00;;;11.30;99.90;;;;;;4998782;28;20556;-52
2022/10/05 05:48:46;;;;;;;20.65;12.25;;;11.30;99.90;;;;;;5014079;28;20025;-51
2022/10/05 05:51:42;;;;;;;17.63;10.90;;;11.40;99.90;;;;;;5011464;28;20051;-52
2022/10/05 05:54:40;;;;;;;14.73;10.45;;;11.50;99.90;;;;;;5015625;28;20018;-54
2022/10/05 05:57:43;;;;;;;12.07;8.85;;;11.50;99.90;;;;;;5009993;28;20030;-49
2022/10/05 06:00:36;;;;;;;15.23;10.07;;;11.60;99.90;;;;;;5008036;28;20029;-53
2022/10/05 06:03:40;;;;;;;15.75;10.13;;;11.60;99.90;;;;;;5029403;28;20036;-51
2022/10/05 06:06:31;;;;;;;11.85;8.25;;;11.50;99.90;;;;;;5018607;28;20409;-50
2022/10/05 06:09:44;;;;;;;12.27;7.65;;;11.50;99.90;;;;;;5022776;28;20711;-54
2022/10/05 06:12:44;;;;;;;11.10;6.82;;;11.50;99.90;;;;;;5007640;28;20057;-53
2022/10/05 06:15:51;;;;;;;12.65;7.45;;;11.60;99.90;;;;;;5019593;28;20512;-55
2022/10/05 06:18:42;;;;;;;19.95;8.48;;;11.70;99.90;;;;;;5030949;28;20030;-54
2022/10/05 06:22:11;;;;;;;12.35;7.95;;;11.70;99.90;;;;;;5012838;28;20390;-51
2022/10/05 06:25:20;;;;;;;14.15;7.55;;;11.70;99.90;;;;;;5016202;28;20028;-54
2022/10/05 06:28:12;;;;;;;11.45;8.80;;;11.90;99.90;;;;;;5031218;28;20079;-51
2022/10/05 06:31:33;;;;;;;11.80;8.15;;;11.90;99.90;;;;;;5017846;28;20022;-56
2022/10/05 06:34:34;;;;;;;13.55;7.70;;;11.90;99.90;;;;;;5000030;28;20041;-48
2022/10/05 06:37:30;;;;;;;12.23;7.88;;;12.00;99.90;;;;;;5015362;28;20026;-52
2022/10/05 06:40:58;;;;;;;19.83;7.97;;;12.00;99.90;;;;;;5011394;28;20037;-48
2022/10/05 06:43:53;;;;;;;21.83;10.05;;;12.10;99.90;;;;;;4996199;28;20547;-54
2022/10/05 06:47:03;;;;;;;11.15;8.27;;;12.20;99.90;;;;;;5011760;28;20033;-54
2022/10/05 06:50:20;;;;;;;12.77;8.85;;;12.30;99.90;;;;;;5029036;28;20125;-54
2022/10/05 06:53:30;;;;;;;11.02;7.70;;;12.40;99.90;;;;;;5017576;28;20100;-55
2022/10/05 06:56:18;;;;;;;19.88;8.15;;;12.60;99.90;;;;;;5010519;28;20077;-55
2022/10/05 06:59:10;;;;;;;17.17;8.13;;;12.60;99.90;;;;;;5030608;28;20077;-52
2022/10/05 07:02:08;;;;;;;13.32;7.60;;;12.70;99.90;;;;;;5012679;28;20465;-49
2022/10/05 07:05:41;;;;;;;11.88;7.38;;;12.80;99.90;;;;;;5027192;28;20025;-53
2022/10/05 07:09:04;;;;;;;9.55;7.45;;;12.90;99.90;;;;;;4972486;28;20657;-49
2022/10/05 07:12:02;;;;;;;15.15;8.15;;;13.00;99.90;;;;;;5012674;28;20084;-57
2022/10/05 07:15:09;;;;;;;19.13;8.80;;;13.00;99.90;;;;;;5010424;28;20053;-53
2022/10/05 07:18:04;;;;;;;15.55;8.52;;;13.00;99.90;;;;;;5022595;28;20030;-52
2022/10/05 07:21:05;;;;;;;15.30;8.48;;;13.00;99.90;;;;;;5028733;28;20029;-50
2022/10/05 07:23:59;;;;;;;13.18;8.02;;;13.00;99.90;;;;;;5015674;28;20029;-52
2022/10/05 07:26:54;;;;;;;16.70;8.35;;;13.10;99.90;;;;;;5021254;28;20144;-54
2022/10/05 07:30:00;;;;;;;11.18;7.55;;;13.20;99.90;;;;;;5010403;28;20265;-55
2022/10/05 07:33:00;;;;;;;15.05;8.90;;;13.30;99.90;;;;;;5011126;28;20026;-50
2022/10/05 07:39:11;;;;;;;13.90;8.63;;;13.40;99.90;;;;;;5010946;28;20030;-54
2022/10/05 07:42:28;;;;;;;13.60;7.68;;;13.30;99.90;;;;;;5002845;28;20024;-56
2022/10/05 07:45:34;;;;;;;12.80;8.30;;;13.40;99.90;;;;;;5026306;28;20032;-51
2022/10/05 07:48:42;;;;;;;16.95;8.65;;;13.50;99.90;;;;;;4996824;28;20030;-53
2022/10/05 07:51:37;;;;;;;15.13;7.60;;;13.60;99.90;;;;;;5007934;28;20482;-56
2022/10/05 07:54:26;;;;;;;10.60;7.28;;;13.60;99.90;;;;;;5017706;28;20045;-53
2022/10/05 07:57:18;;;;;;;11.38;8.60;;;13.70;99.90;;;;;;5012896;28;20037;-53
2022/10/05 08:00:09;;;;;;;12.55;8.20;;;13.70;99.90;;;;;;5011288;28;20100;-51
2022/10/05 08:03:04;;;;;;;10.35;7.60;;;13.80;99.90;;;;;;5012464;28;20092;-50
2022/10/05 08:05:50;;;;;;;9.63;7.20;;;13.80;99.90;;;;;;5012604;28;20515;-56
2022/10/05 08:08:51;;;;;;;12.02;7.00;;;14.00;99.90;;;;;;5012737;28;20057;-53
2022/10/05 08:12:06;;;;;;;10.50;6.68;;;14.00;99.90;;;;;;5013438;28;20510;-54
2022/10/05 08:14:56;;;;;;;10.65;6.95;;;14.10;99.90;;;;;;5003531;28;20030;-54
2022/10/05 08:18:04;;;;;;;9.20;6.60;;;14.20;99.90;;;;;;5010726;28;20034;-54
2022/10/05 08:20:55;;;;;;;11.55;7.03;;;14.20;99.90;;;;;;5012533;28;20517;-58
2022/10/05 08:24:23;;;;;;;9.77;7.15;;;14.30;99.90;;;;;;5010561;28;20389;-55
2022/10/05 08:27:26;;;;;;;12.43;7.82;;;14.40;99.90;;;;;;5011692;28;20057;-54
2022/10/05 08:30:14;;;;;;;10.05;6.80;;;14.40;99.90;;;;;;5012708;28;20042;-54
2022/10/05 08:33:20;;;;;;;15.35;6.90;;;14.40;99.90;;;;;;5012026;28;20057;-54
2022/10/05 08:36:11;;;;;;;10.50;7.22;;;14.40;99.90;;;;;;5013455;28;20022;-54
2022/10/05 08:39:02;;;;;;;11.32;7.05;;;14.40;99.90;;;;;;5012961;28;20102;-52
2022/10/05 08:42:07;;;;;;;10.65;6.50;;;14.50;99.90;;;;;;5010652;28;20072;-51
2022/10/05 08:44:54;;;;;;;8.90;6.22;;;14.50;99.90;;;;;;5013451;28;20027;-53
2022/10/05 08:48:19;;;;;;;13.52;7.35;;;14.50;99.90;;;;;;5012350;28;20128;-54
2022/10/05 08:51:14;;;;;;;7.93;5.95;;;14.60;99.90;;;;;;5012314;28;20572;-54
2022/10/05 08:54:19;;;;;;;;;;;14.70;99.90;;;;;;5012922;28;20457;-52
2022/10/05 08:57:26;;;;;;;10.32;6.40;;;14.80;99.90;;;;;;5010890;28;19914;-54
2022/10/05 09:00:30;;;;;;;7.32;6.00;;;15.00;99.90;;;;;;5011636;28;20026;-51
2022/10/05 09:03:47;;;;;;;7.70;5.50;;;15.10;99.90;;;;;;5012988;28;20029;-53
2022/10/05 09:06:58;;;;;;;7.93;6.35;;;15.20;99.90;;;;;;5013097;28;20493;-53
2022/10/05 09:10:02;;;;;;;8.95;5.55;;;15.30;99.90;;;;;;5011902;28;20048;-54
2022/10/05 09:13:06;;;;;;;8.23;5.95;;;15.30;99.90;;;;;;5013389;28;20026;-55
2022/10/05 09:16:18;;;;;;;9.50;6.35;;;15.20;99.90;;;;;;4994684;28;20027;-55
2022/10/05 09:19:31;;;;;;;11.88;6.00;;;15.20;99.90;;;;;;5006893;28;20116;-48
2022/10/05 09:22:43;;;;;;;8.20;6.70;;;15.30;99.90;;;;;;5032589;28;20021;-50
2022/10/05 09:25:58;;;;;;;9.38;6.43;;;15.50;99.90;;;;;;5014222;28;20065;-52
2022/10/05 09:29:08;;;;;;;10.65;6.72;;;15.60;99.90;;;;;;5029247;28;20032;-52
2022/10/05 09:32:23;;;;;;;10.40;7.35;;;15.80;99.90;;;;;;5030686;28;20036;-50
2022/10/05 09:35:47;;;;;;;8.43;6.85;;;15.80;99.90;;;;;;5018241;28;20497;-54
2022/10/05 09:38:57;;;;;;;9.63;7.60;;;15.80;99.90;;;;;;5032967;28;20080;-51
2022/10/05 09:41:46;;;;;;;9.65;6.95;;;16.00;99.90;;;;;;5014337;28;20022;-50
2022/10/05 09:44:50;;;;;;;9.18;6.78;;;16.00;99.90;;;;;;5013252;28;20497;-48
2022/10/05 09:47:36;;;;;;;9.73;7.40;;;16.20;99.90;;;;;;4995426;28;20030;-47
2022/10/05 09:50:39;;;;;;;9.57;7.07;;;16.30;99.90;;;;;;5002318;28;20021;-53
2022/10/05 09:53:44;;;;;;;12.00;7.38;;;16.30;99.90;;;;;;5032057;28;20017;-52
2022/10/05 09:57:02;;;;;;;10.65;7.20;;;16.30;99.90;;;;;;5030678;28;20400;-54
2022/10/05 10:00:14;;;;;;;10.35;7.03;;;16.50;99.90;;;;;;5030472;28;20025;-53
2022/10/05 10:03:23;;;;;;;9.13;7.22;;;16.60;99.90;;;;;;5011729;28;20072;-56
2022/10/05 10:06:40;;;;;;;10.05;6.43;;;16.70;99.90;;;;;;5022775;28;20520;-49
2022/10/05 10:09:51;;;;;;;9.05;6.70;;;16.90;99.90;;;;;;5026246;28;20029;-51
2022/10/05 10:13:35;;;;;;;8.52;6.47;;;17.00;99.30;;;;;;4992421;28;20026;-48
2022/10/05 10:16:49;;;;;;;7.07;5.75;;;16.90;98.70;;;;;;5015279;28;20025;-52
2022/10/05 10:20:05;;;;;;;6.15;5.43;;;17.10;98.50;;;;;;5024095;28;20509;-48
2022/10/05 10:23:26;;;;;;;8.00;5.60;;;17.20;98.60;;;;;;5011808;28;20473;-51
2022/10/05 10:26:33;;;;;;;9.50;5.50;;;17.40;98.30;;;;;;5021209;28;20035;-53
2022/10/05 10:29:31;;;;;;;8.73;6.00;;;17.40;98.20;;;;;;5031281;28;20053;-52
2022/10/05 10:32:46;;;;;;;6.63;5.53;;;17.30;97.90;;;;;;5011401;28;20018;-50
2022/10/05 10:35:35;;;;;;;9.32;6.38;;;17.40;98.10;;;;;;5013863;28;20389;-47
2022/10/05 10:38:44;;;;;;;7.30;5.95;;;17.50;97.60;;;;;;5031151;28;20493;-49
2022/10/05 10:42:00;;;;;;;6.35;5.72;;;17.50;98.00;;;;;;5029659;28;20037;-49
2022/10/05 10:45:00;;;;;;;9.15;5.40;;;17.60;98.20;;;;;;5031162;28;20029;-52
2022/10/05 10:47:59;;;;;;;8.57;5.68;;;17.70;96.90;;;;;;4992936;28;20109;-50
2022/10/05 10:50:57;;;;;;;9.02;5.25;;;17.60;97.10;;;;;;4980202;28;20795;-49
2022/10/05 10:54:17;;;;;;;9.85;5.20;;;17.60;97.20;;;;;;5011611;28;20176;-52
2022/10/05 10:57:10;;;;;;;7.82;4.90;;;17.50;97.00;;;;;;5023906;28;20029;-50
2022/10/05 11:00:14;;;;;;;7.57;5.20;;;17.50;97.20;;;;;;5003847;28;20103;-53
2022/10/05 11:03:22;;;;;;;6.85;5.30;;;17.50;97.30;;;;;;4991702;28;20556;-55
2022/10/05 11:06:27;;;;;;;6.45;5.35;;;17.40;97.50;;;;;;5009434;28;20577;-50
2022/10/05 11:09:22;;;;;;;6.72;5.25;;;17.20;97.50;;;;;;4997519;28;20022;-52
2022/10/05 11:12:26;;;;;;;6.07;5.22;;;17.30;97.80;;;;;;5010904;28;20116;-54
2022/10/05 11:15:43;;;;;;;8.43;5.03;;;17.30;97.90;;;;;;5012297;28;20026;-55
2022/10/05 11:18:35;;;;;;;8.38;4.90;;;17.60;97.70;;;;;;5030146;28;20038;-51
2022/10/05 11:21:45;;;;;;;9.05;5.05;;;17.80;97.50;;;;;;5019537;28;20509;-54
2022/10/05 11:24:46;;;;;;;9.65;6.03;;;17.90;97.70;;;;;;5011065;28;20527;-50
2022/10/05 11:27:45;;;;;;;10.32;6.43;;;17.90;97.50;;;;;;5029673;28;20026;-56
2022/10/05 11:30:47;;;;;;;9.63;6.13;;;17.80;98.00;;;;;;5028764;28;20531;-57
2022/10/05 11:33:54;;;;;;;7.15;5.55;;;17.80;98.20;;;;;;5014933;28;20165;-52
2022/10/05 11:36:46;;;;;;;7.72;5.45;;;18.00;98.40;;;;;;4995521;28;20026;-55
2022/10/05 11:39:41;;;;;;;7.38;5.85;;;18.10;97.50;;;;;;5001493;28;20025;-52
2022/10/05 11:42:47;;;;;;;7.90;5.95;;;18.00;98.00;;;;;;5034171;28;20101;-51
2022/10/05 11:46:00;;;;;;;10.20;5.95;;;18.20;98.00;;;;;;5021840;28;20524;-49
2022/10/05 11:49:12;;;;;;;8.38;5.80;;;18.40;97.80;;;;;;5015142;28;20033;-54
2022/10/05 11:52:03;;;;;;;8.55;5.82;;;18.30;97.70;;;;;;5013774;28;20026;-54
2022/10/05 11:54:58;;;;;;;6.72;5.72;;;18.30;97.70;;;;;;5017518;28;20053;-51
2022/10/05 11:57:55;;;;;;;8.02;5.85;;;18.20;98.00;;;;;;5034478;28;20504;-54
2022/10/05 12:01:05;;;;;;;8.02;6.57;;;18.20;97.60;;;;;;5025584;28;20026;-50
2022/10/05 12:04:22;;;;;;;7.22;6.50;;;18.20;97.20;;;;;;5015878;28;20485;-48
2022/10/05 12:07:27;;;;;;;7.13;6.43;;;18.30;97.20;;;;;;4994376;28;20030;-53
2022/10/05 12:10:46;;;;;;;6.43;5.72;;;18.10;97.70;;;;;;5004724;28;20026;-50
2022/10/05 12:13:50;;;;;;;8.48;5.95;;;18.20;97.90;;;;;;5019908;28;20121;-49
2022/10/05 12:16:48;;;;;;;10.02;6.00;;;18.30;97.40;;;;;;5010065;28;20099;-49
2022/10/05 12:19:44;;;;;;;7.20;5.78;;;18.40;97.40;;;;;;5034156;28;20029;-49
2022/10/05 12:22:38;;;;;;;9.00;6.15;;;18.20;97.90;;;;;;5015202;28;20034;-51
2022/10/05 12:26:09;;;;;;;6.65;5.95;;;18.40;97.40;;;;;;5000314;28;20025;-50
2022/10/05 12:29:27;;;;;;;6.80;5.72;;;18.50;97.20;;;;;;4975598;28;20093;-53
2022/10/05 12:32:44;;;;;;;6.82;5.00;;;18.50;97.30;;;;;;5008161;28;20042;-52
2022/10/05 12:35:33;;;;;;;;;;;18.60;97.00;;;;;;5034163;28;20021;-52
2022/10/05 12:38:27;;;;;;;7.55;6.20;;;18.50;97.10;;;;;;4994699;28;20361;-48
2022/10/05 12:41:40;;;;;;;7.33;5.67;;;18.70;96.90;;;;;;5022324;28;20037;-47
2022/10/05 12:45:03;;;;;;;7.88;5.72;;;18.80;96.60;;;;;;5034236;28;20029;-52
2022/10/05 12:48:12;;;;;;;7.25;5.40;;;18.90;96.60;;;;;;5026586;28;20033;-47
2022/10/05 12:51:29;;;;;;;7.03;5.43;;;19.10;96.30;;;;;;5039966;28;20025;-53
2022/10/05 12:54:48;;;;;;;6.53;5.13;;;19.20;96.30;;;;;;5018204;28;20112;-54
2022/10/05 12:57:56;;;;;;;8.50;6.75;;;19.30;95.80;;;;;;5031926;28;20029;-48
2022/10/05 13:01:21;;;;;;;6.82;4.72;;;19.50;95.90;;;;;;5037979;28;20028;-46
2022/10/05 13:04:39;;;;;;;10.80;4.88;;;19.70;95.30;;;;;;5013669;28;20025;-54
2022/10/05 13:07:40;;;;;;;5.75;4.80;;;19.90;94.70;;;;;;5028021;28;20044;-51
2022/10/05 13:10:35;;;;;;;8.60;4.68;;;20.00;94.50;;;;;;5031452;28;20044;-48
2022/10/05 13:13:49;;;;;;;9.13;4.63;;;20.00;94.40;;;;;;5032220;28;20497;-53
2022/10/05 13:16:55;;;;;;;6.57;4.38;;;20.00;94.00;;;;;;5025778;28;20645;-48
2022/10/05 13:19:45;;;;;;;5.63;4.32;;;19.80;94.60;;;;;;5013841;28;20038;-49
2022/10/05 13:22:41;;;;;;;4.53;4.10;;;20.00;94.10;;;;;;5026170;28;20033;-56
2022/10/05 13:25:55;;;;;;;7.93;5.28;;;20.10;93.90;;;;;;5026256;28;20022;-50
2022/10/05 13:29:00;;;;;;;4.22;3.83;;;20.40;93.70;;;;;;5013033;28;20026;-55
2022/10/05 13:32:02;;;;;;;11.30;5.00;;;20.50;93.30;;;;;;5027959;28;20090;-51
2022/10/05 13:35:06;;;;;;;6.25;4.50;;;20.50;92.90;;;;;;4999558;28;20057;-52
2022/10/05 13:38:14;;;;;;;6.93;4.23;;;20.60;92.60;;;;;;5004656;28;20385;-55
2022/10/05 13:41:18;;;;;;;6.55;4.07;;;20.70;92.70;;;;;;5012164;28;20280;-56
2022/10/05 13:44:15;;;;;;;6.40;4.22;;;20.80;91.90;;;;;;5013080;28;20109;-47
2022/10/05 13:47:18;;;;;;;5.85;4.05;;;20.80;91.70;;;;;;4993346;28;20043;-50
2022/10/05 13:50:20;;;;;;;6.85;3.67;;;20.60;92.00;;;;;;5002978;28;20100;-50
2022/10/05 13:53:14;;;;;;;5.63;3.75;;;20.50;92.00;;;;;;5017376;28;20467;-57
2022/10/05 13:56:07;;;;;;;5.53;4.07;;;20.70;91.80;;;;;;4994959;28;20033;-52
2022/10/05 13:59:23;;;;;;;6.20;3.60;;;20.90;91.70;;;;;;4996124;28;20038;-57
2022/10/05 14:02:19;;;;;;;7.32;4.15;;;21.10;91.60;;;;;;4994856;28;20104;-56
2022/10/05 14:05:23;;;;;;;;;;;21.10;91.10;;;;;;5012177;28;20018;-57
2022/10/05 14:08:16;;;;;;;5.00;4.00;;;20.70;91.40;;;;;;5004489;28;19952;-56
2022/10/05 14:11:25;;;;;;;4.28;3.60;;;20.80;91.40;;;;;;4996731;28;20092;-56
2022/10/05 14:14:29;;;;;;;5.07;3.97;;;20.80;91.20;;;;;;5012584;28;20036;-56
2022/10/05 14:17:37;;;;;;;5.75;3.83;;;20.80;91.20;;;;;;4996904;28;20088;-58
2022/10/05 14:20:29;;;;;;;7.65;4.03;;;21.10;91.20;;;;;;5011376;28;20509;-57
2022/10/05 14:23:24;;;;;;;5.20;3.60;;;21.20;91.00;;;;;;5025781;28;20068;-55
2022/10/05 14:26:18;;;;;;;7.30;3.67;;;21.60;90.50;;;;;;5001077;28;20033;-58
2022/10/05 14:29:13;;;;;;;5.97;4.03;;;21.50;90.60;;;;;;4997465;28;20061;-58
2022/10/05 14:32:00;;;;;;;5.55;3.70;;;21.80;90.20;;;;;;5010429;28;20069;-58
2022/10/05 14:35:11;;;;;;;4.57;3.63;;;21.80;89.40;;;;;;5017901;28;20057;-56
2022/10/05 14:38:01;;;;;;;4.90;3.63;;;21.80;89.30;;;;;;4981299;28;20384;-56
2022/10/05 14:41:15;;;;;;;4.93;3.55;;;22.00;89.00;;;;;;5030868;28;20029;-53
2022/10/05 14:44:04;;;;;;;6.63;3.83;;;22.00;88.50;;;;;;5021111;28;20363;-59
2022/10/05 14:47:02;;;;;;;3.88;3.47;;;22.30;87.50;;;;;;4998287;28;20037;-56
2022/10/05 14:50:13;;;;;;;5.88;3.50;;;22.40;86.70;;;;;;5012009;28;20029;-53
2022/10/05 14:53:10;;;;;;;4.70;3.60;;;22.60;86.60;;;;;;5022440;28;20025;-58
2022/10/05 14:56:31;;;;;;;4.40;3.22;;;23.30;84.60;;;;;;5012501;28;20064;-55
2022/10/05 14:59:35;;;;;;;3.42;3.13;;;23.50;83.50;;;;;;4992993;28;20030;-54
2022/10/05 15:03:04;;;;;;;10.60;5.53;;;23.30;82.90;;;;;;5005649;28;20121;-60
2022/10/05 15:05:58;;;;;;;5.70;3.47;;;23.00;83.80;;;;;;5012021;28;20441;-53
2022/10/05 15:09:16;;;;;;;6.28;3.20;;;22.50;85.20;;;;;;4996475;28;20026;-54
2022/10/05 15:12:03;;;;;;;3.92;3.53;;;22.00;86.60;;;;;;5023804;28;20178;-59
2022/10/05 15:14:54;;;;;;;4.88;3.60;;;21.60;87.80;;;;;;5012296;28;20037;-57
2022/10/05 15:17:54;;;;;;;4.00;3.67;;;21.30;89.10;;;;;;5011859;28;20033;-58
2022/10/05 15:21:19;;;;;;;5.18;3.50;;;21.20;89.70;;;;;;5010986;28;21728;-59
2022/10/05 15:24:13;;;;;;;5.18;3.50;;;20.90;90.20;;;;;;5012981;28;20717;-58
2022/10/05 15:27:02;;;;;;;4.20;3.80;;;20.90;90.40;;;;;;5028772;28;20124;-59
2022/10/05 15:29:48;;;;;;;5.55;3.70;;;20.80;90.50;;;;;;5033519;28;20057;-59
2022/10/05 15:33:08;;;;;;;6.22;3.80;;;20.70;90.60;;;;;;4978548;28;20038;-56
2022/10/05 15:35:59;;;;;;;3.95;3.55;;;20.80;90.70;;;;;;5009213;28;20030;-56
2022/10/05 15:39:10;;;;;;;4.95;3.55;;;20.80;90.50;;;;;;5010748;28;20026;-58
2022/10/05 15:42:03;;;;;;;3.90;3.60;;;20.90;90.50;;;;;;5012841;28;20053;-57
2022/10/05 15:45:05;;;;;;;5.28;3.88;;;20.80;90.60;;;;;;5028450;28;20036;-54
2022/10/05 15:48:18;;;;;;;10.57;3.88;;;21.20;90.40;;;;;;5035621;28;20032;-55
2022/10/05 15:51:39;;;;;;;4.43;3.38;;;22.00;89.10;;;;;;5016717;28;20065;-56